sensor_id;sensor_type;location;lat;lon;timestamp;pressure;altitude;pressure_sealevel;temperature;humidity
36192;BME280;22233;42.708;23.360;2022-11-20T00:02:17;94699.81;;;16.81;66.14
36192;BME280;22233;42.708;23.360;2022-11-20T00:04:42;94711.53;;;16.55;66.20
36192;BME280;22233;42.708;23.360;2022-11-20T00:07:08;94730.50;;;16.41;66.52
36192;BME280;22233;42.708;23.360;2022-11-20T00:09:33;94720.13;;;16.80;66.02
36192;BME280;22233;42.708;23.360;2022-11-20T00:11:58;94694.03;;;16.90;63.94
36192;BME280;22233;42.708;23.360;2022-11-20T00:14:24;94703.88;;;16.91;64.07
36192;BME280;22233;42.708;23.360;2022-11-20T00:16:49;94713.94;;;16.83;64.28
36192;BME280;22233;42.708;23.360;2022-11-20T00:19:14;94708.34;;;17.03;63.38
36192;BME280;22233;42.708;23.360;2022-11-20T00:21:40;94694.88;;;17.24;62.09
36192;BME280;22233;42.708;23.360;2022-11-20T00:24:07;94703.84;;;17.51;61.60
36192;BME280;22233;42.708;23.360;2022-11-20T00:26:33;94719.44;;;17.44;61.70
36192;BME280;22233;42.708;23.360;2022-11-20T00:29:00;94689.50;;;17.31;61.70
36192;BME280;22233;42.708;23.360;2022-11-20T00:31:27;94702.00;;;17.29;62.34
36192;BME280;22233;42.708;23.360;2022-11-20T00:33:53;94703.22;;;17.65;61.16
36192;BME280;22233;42.708;23.360;2022-11-20T00:36:21;94712.44;;;17.50;61.77
36192;BME280;22233;42.708;23.360;2022-11-20T00:38:51;94700.31;;;17.51;61.26
36192;BME280;22233;42.708;23.360;2022-11-20T00:41:17;94710.63;;;17.61;61.36
36192;BME280;22233;42.708;23.360;2022-11-20T00:43:43;94693.88;;;17.73;60.98
36192;BME280;22233;42.708;23.360;2022-11-20T00:46:14;94690.94;;;17.55;60.71
36192;BME280;22233;42.708;23.360;2022-11-20T00:48:40;94705.44;;;17.22;61.86
36192;BME280;22233;42.708;23.360;2022-11-20T00:51:06;94711.16;;;17.74;56.49
36192;BME280;22233;42.708;23.360;2022-11-20T00:53:32;94698.72;;;18.25;54.73
36192;BME280;22233;42.708;23.360;2022-11-20T00:56:04;94699.97;;;18.34;54.04
36192;BME280;22233;42.708;23.360;2022-11-20T00:58:32;94710.56;;;18.81;53.72
36192;BME280;22233;42.708;23.360;2022-11-20T01:01:24;94692.25;;;19.06;52.82
36192;BME280;22233;42.708;23.360;2022-11-20T01:03:51;94686.78;;;19.10;52.06
36192;BME280;22233;42.708;23.360;2022-11-20T01:06:22;94697.38;;;19.04;53.78
36192;BME280;22233;42.708;23.360;2022-11-20T01:08:49;94686.75;;;19.06;53.10
36192;BME280;22233;42.708;23.360;2022-11-20T01:11:17;94660.50;;;19.27;52.35
36192;BME280;22233;42.708;23.360;2022-11-20T01:13:45;94702.41;;;18.91;53.83
36192;BME280;22233;42.708;23.360;2022-11-20T01:16:14;94684.34;;;18.94;55.02
36192;BME280;22233;42.708;23.360;2022-11-20T01:18:42;94688.59;;;18.84;55.36
36192;BME280;22233;42.708;23.360;2022-11-20T01:21:16;94680.56;;;18.65;55.79
36192;BME280;22233;42.708;23.360;2022-11-20T01:23:43;94689.47;;;18.99;54.33
36192;BME280;22233;42.708;23.360;2022-11-20T01:26:11;94689.31;;;18.77;55.18
36192;BME280;22233;42.708;23.360;2022-11-20T01:28:37;94660.69;;;18.89;54.24
36192;BME280;22233;42.708;23.360;2022-11-20T01:33:37;94687.09;;;19.01;53.82
36192;BME280;22233;42.708;23.360;2022-11-20T01:36:04;94668.31;;;19.10;52.76
36192;BME280;22233;42.708;23.360;2022-11-20T01:38:30;94666.00;;;19.20;52.31
36192;BME280;22233;42.708;23.360;2022-11-20T01:40:56;94659.69;;;19.23;50.17
36192;BME280;22233;42.708;23.360;2022-11-20T01:43:22;94654.72;;;19.68;48.91
36192;BME280;22233;42.708;23.360;2022-11-20T01:45:58;94645.00;;;20.06;48.39
36192;BME280;22233;42.708;23.360;2022-11-20T01:48:28;94611.09;;;19.77;48.80
36192;BME280;22233;42.708;23.360;2022-11-20T01:50:55;94635.50;;;19.89;48.55
36192;BME280;22233;42.708;23.360;2022-11-20T01:53:27;94634.34;;;19.98;48.96
36192;BME280;22233;42.708;23.360;2022-11-20T01:55:56;94656.00;;;19.88;50.37
36192;BME280;22233;42.708;23.360;2022-11-20T01:58:26;94659.13;;;19.76;51.48
36192;BME280;22233;42.708;23.360;2022-11-20T02:00:53;94635.41;;;19.46;52.67
36192;BME280;22233;42.708;23.360;2022-11-20T02:03:20;94639.25;;;19.24;53.23
36192;BME280;22233;42.708;23.360;2022-11-20T02:05:57;94632.22;;;19.41;52.19
36192;BME280;22233;42.708;23.360;2022-11-20T02:08:26;94633.81;;;19.45;51.53
36192;BME280;22233;42.708;23.360;2022-11-20T02:10:51;94662.28;;;19.78;51.21
36192;BME280;22233;42.708;23.360;2022-11-20T02:13:17;94652.03;;;19.75;51.15
36192;BME280;22233;42.708;23.360;2022-11-20T02:16:02;94627.25;;;19.82;51.09
36192;BME280;22233;42.708;23.360;2022-11-20T02:18:28;94666.94;;;19.67;50.22
36192;BME280;22233;42.708;23.360;2022-11-20T02:20:59;94653.50;;;19.44;50.14
36192;BME280;22233;42.708;23.360;2022-11-20T02:23:39;94666.97;;;19.78;49.39
36192;BME280;22233;42.708;23.360;2022-11-20T02:26:11;94654.41;;;19.84;48.37
36192;BME280;22233;42.708;23.360;2022-11-20T02:28:38;94669.81;;;20.06;48.61
36192;BME280;22233;42.708;23.360;2022-11-20T02:31:04;94654.03;;;20.18;47.66
36192;BME280;22233;42.708;23.360;2022-11-20T02:33:29;94660.34;;;20.40;47.94
36192;BME280;22233;42.708;23.360;2022-11-20T02:35:55;94655.63;;;20.44;46.96
36192;BME280;22233;42.708;23.360;2022-11-20T02:38:20;94656.03;;;20.24;47.51
36192;BME280;22233;42.708;23.360;2022-11-20T02:40:45;94673.38;;;20.28;47.95
36192;BME280;22233;42.708;23.360;2022-11-20T02:43:11;94675.34;;;20.35;47.90
36192;BME280;22233;42.708;23.360;2022-11-20T02:45:37;94677.72;;;20.65;47.33
36192;BME280;22233;42.708;23.360;2022-11-20T02:48:03;94679.66;;;20.68;47.18
36192;BME280;22233;42.708;23.360;2022-11-20T02:50:28;94686.41;;;20.71;47.37
36192;BME280;22233;42.708;23.360;2022-11-20T02:52:53;94679.69;;;20.32;47.92
36192;BME280;22233;42.708;23.360;2022-11-20T02:55:19;94698.19;;;20.28;47.91
36192;BME280;22233;42.708;23.360;2022-11-20T02:57:44;94704.06;;;20.09;48.67
36192;BME280;22233;42.708;23.360;2022-11-20T03:00:10;94701.31;;;20.23;49.00
36192;BME280;22233;42.708;23.360;2022-11-20T03:02:36;94683.94;;;19.94;49.62
36192;BME280;22233;42.708;23.360;2022-11-20T03:05:02;94718.63;;;20.09;50.22
36192;BME280;22233;42.708;23.360;2022-11-20T03:07:27;94723.34;;;20.05;49.45
36192;BME280;22233;42.708;23.360;2022-11-20T03:09:53;94737.19;;;20.23;49.38
36192;BME280;22233;42.708;23.360;2022-11-20T03:12:18;94728.16;;;20.41;49.15
36192;BME280;22233;42.708;23.360;2022-11-20T03:14:44;94736.00;;;20.28;49.08
36192;BME280;22233;42.708;23.360;2022-11-20T03:17:09;94718.31;;;20.50;49.02
36192;BME280;22233;42.708;23.360;2022-11-20T03:19:34;94734.06;;;20.57;48.93
36192;BME280;22233;42.708;23.360;2022-11-20T03:22:00;94721.06;;;20.50;49.15
36192;BME280;22233;42.708;23.360;2022-11-20T03:24:26;94728.16;;;20.62;49.17
36192;BME280;22233;42.708;23.360;2022-11-20T03:26:51;94721.84;;;20.51;49.01
36192;BME280;22233;42.708;23.360;2022-11-20T03:29:17;94743.91;;;20.58;49.16
36192;BME280;22233;42.708;23.360;2022-11-20T03:31:42;94747.09;;;20.74;48.59
36192;BME280;22233;42.708;23.360;2022-11-20T03:34:10;94742.34;;;20.64;49.53
36192;BME280;22233;42.708;23.360;2022-11-20T03:36:40;94731.72;;;20.59;49.23
36192;BME280;22233;42.708;23.360;2022-11-20T03:39:06;94741.53;;;20.46;49.22
36192;BME280;22233;42.708;23.360;2022-11-20T03:41:36;94754.56;;;20.49;49.66
36192;BME280;22233;42.708;23.360;2022-11-20T03:44:03;94756.47;;;20.34;49.19
36192;BME280;22233;42.708;23.360;2022-11-20T03:46:29;94758.09;;;20.39;49.15
36192;BME280;22233;42.708;23.360;2022-11-20T03:48:55;94747.84;;;20.43;49.02
36192;BME280;22233;42.708;23.360;2022-11-20T03:51:28;94761.22;;;20.30;50.38
36192;BME280;22233;42.708;23.360;2022-11-20T03:53:56;94761.22;;;20.23;49.67
36192;BME280;22233;42.708;23.360;2022-11-20T03:56:27;94733.66;;;20.41;49.43
36192;BME280;22233;42.708;23.360;2022-11-20T03:58:54;94728.13;;;20.37;49.54
36192;BME280;22233;42.708;23.360;2022-11-20T04:01:21;94728.53;;;20.39;49.62
36192;BME280;22233;42.708;23.360;2022-11-20T04:03:48;94731.28;;;20.25;49.51
36192;BME280;22233;42.708;23.360;2022-11-20T04:06:16;94736.78;;;20.35;49.47
36192;BME280;22233;42.708;23.360;2022-11-20T04:08:42;94735.63;;;20.47;49.42
36192;BME280;22233;42.708;23.360;2022-11-20T04:11:28;94733.66;;;20.48;49.03
36192;BME280;22233;42.708;23.360;2022-11-20T04:13:56;94724.16;;;20.09;49.49
36192;BME280;22233;42.708;23.360;2022-11-20T04:16:24;94740.75;;;20.45;49.49
36192;BME280;22233;42.708;23.360;2022-11-20T04:18:53;94750.97;;;20.38;49.95
36192;BME280;22233;42.708;23.360;2022-11-20T04:21:19;94746.22;;;20.24;49.78
36192;BME280;22233;42.708;23.360;2022-11-20T04:23:44;94725.31;;;19.98;50.63
36192;BME280;22233;42.708;23.360;2022-11-20T04:26:11;94737.19;;;20.30;49.92
36192;BME280;22233;42.708;23.360;2022-11-20T04:28:37;94733.66;;;20.48;49.68
36192;BME280;22233;42.708;23.360;2022-11-20T04:31:09;94741.94;;;20.37;49.77
36192;BME280;22233;42.708;23.360;2022-11-20T04:33:35;94730.84;;;20.05;49.95
36192;BME280;22233;42.708;23.360;2022-11-20T04:36:03;94742.59;;;19.87;50.89
36192;BME280;22233;42.708;23.360;2022-11-20T04:38:30;94748.88;;;19.77;50.38
36192;BME280;22233;42.708;23.360;2022-11-20T04:41:00;94748.91;;;19.91;50.59
36192;BME280;22233;42.708;23.360;2022-11-20T04:43:25;94751.22;;;19.75;50.83
36192;BME280;22233;42.708;23.360;2022-11-20T04:45:54;94755.94;;;19.71;50.90
36192;BME280;22233;42.708;23.360;2022-11-20T04:48:20;94755.16;;;19.78;50.78
36192;BME280;22233;42.708;23.360;2022-11-20T04:50:46;94731.59;;;19.94;50.36
36192;BME280;22233;42.708;23.360;2022-11-20T04:53:11;94741.13;;;20.26;50.01
36192;BME280;22233;42.708;23.360;2022-11-20T04:55:37;94742.63;;;19.91;50.84
36192;BME280;22233;42.708;23.360;2022-11-20T04:58:02;94734.66;;;19.71;51.33
36192;BME280;22233;42.708;23.360;2022-11-20T05:00:28;94729.25;;;20.07;51.01
36192;BME280;22233;42.708;23.360;2022-11-20T05:02:53;94713.06;;;19.84;51.11
36192;BME280;22233;42.708;23.360;2022-11-20T05:05:18;94719.03;;;20.01;50.20
36192;BME280;22233;42.708;23.360;2022-11-20T05:07:44;94711.91;;;20.00;50.37
36192;BME280;22233;42.708;23.360;2022-11-20T05:10:09;94691.47;;;20.01;50.03
36192;BME280;22233;42.708;23.360;2022-11-20T05:12:34;94711.47;;;19.76;51.25
36192;BME280;22233;42.708;23.360;2022-11-20T05:15:00;94714.69;;;19.96;50.74
36192;BME280;22233;42.708;23.360;2022-11-20T05:17:25;94720.59;;;19.94;51.03
36192;BME280;22233;42.708;23.360;2022-11-20T05:19:50;94705.09;;;19.65;51.49
36192;BME280;22233;42.708;23.360;2022-11-20T05:22:16;94708.31;;;19.74;51.22
36192;BME280;22233;42.708;23.360;2022-11-20T05:24:41;94702.72;;;19.52;51.69
36192;BME280;22233;42.708;23.360;2022-11-20T05:27:07;94699.84;;;19.24;52.98
36192;BME280;22233;42.708;23.360;2022-11-20T05:29:32;94710.88;;;19.31;53.11
36192;BME280;22233;42.708;23.360;2022-11-20T05:31:57;94707.00;;;19.46;53.10
36192;BME280;22233;42.708;23.360;2022-11-20T05:34:23;94704.06;;;19.07;55.01
36192;BME280;22233;42.708;23.360;2022-11-20T05:36:48;94720.75;;;19.39;55.29
36192;BME280;22233;42.708;23.360;2022-11-20T05:39:14;94712.38;;;19.21;55.65
36192;BME280;22233;42.708;23.360;2022-11-20T05:41:39;94718.41;;;18.79;56.94
36192;BME280;22233;42.708;23.360;2022-11-20T05:44:04;94706.06;;;18.58;57.85
36192;BME280;22233;42.708;23.360;2022-11-20T05:46:30;94735.66;;;18.72;58.16
36192;BME280;22233;42.708;23.360;2022-11-20T05:48:56;94730.19;;;18.75;57.78
36192;BME280;22233;42.708;23.360;2022-11-20T05:51:22;94716.03;;;18.73;57.94
36192;BME280;22233;42.708;23.360;2022-11-20T05:53:47;94716.69;;;18.60;57.91
36192;BME280;22233;42.708;23.360;2022-11-20T05:56:15;94726.88;;;18.55;58.29
36192;BME280;22233;42.708;23.360;2022-11-20T05:58:42;94737.63;;;18.75;57.11
36192;BME280;22233;42.708;23.360;2022-11-20T06:01:18;94707.84;;;18.84;56.80
36192;BME280;22233;42.708;23.360;2022-11-20T06:03:44;94722.88;;;19.01;56.70
36192;BME280;22233;42.708;23.360;2022-11-20T06:06:13;94726.22;;;18.73;57.45
36192;BME280;22233;42.708;23.360;2022-11-20T06:08:38;94727.38;;;18.68;57.28
36192;BME280;22233;42.708;23.360;2022-11-20T06:11:09;94720.09;;;18.42;57.58
36192;BME280;22233;42.708;23.360;2022-11-20T06:13:35;94733.16;;;18.56;57.24
36192;BME280;22233;42.708;23.360;2022-11-20T06:16:01;94717.41;;;18.49;56.89
36192;BME280;22233;42.708;23.360;2022-11-20T06:18:27;94730.91;;;18.69;56.75
36192;BME280;22233;42.708;23.360;2022-11-20T06:21:09;94722.78;;;18.83;56.02
36192;BME280;22233;42.708;23.360;2022-11-20T06:23:35;94720.72;;;18.69;56.84
36192;BME280;22233;42.708;23.360;2022-11-20T06:26:08;94716.44;;;18.75;56.36
36192;BME280;22233;42.708;23.360;2022-11-20T06:28:34;94728.97;;;18.69;56.61
36192;BME280;22233;42.708;23.360;2022-11-20T06:31:00;94726.88;;;18.55;57.39
36192;BME280;22233;42.708;23.360;2022-11-20T06:33:26;94725.75;;;18.64;56.78
36192;BME280;22233;42.708;23.360;2022-11-20T06:35:52;94709.56;;;18.51;57.28
36192;BME280;22233;42.708;23.360;2022-11-20T06:38:17;94712.16;;;18.37;57.26
36192;BME280;22233;42.708;23.360;2022-11-20T06:40:43;94731.41;;;18.37;56.81
36192;BME280;22233;42.708;23.360;2022-11-20T06:43:09;94730.13;;;18.68;56.96
36192;BME280;22233;42.708;23.360;2022-11-20T06:45:35;94723.06;;;18.67;57.41
36192;BME280;22233;42.708;23.360;2022-11-20T06:48:01;94729.38;;;18.71;56.43
36192;BME280;22233;42.708;23.360;2022-11-20T06:50:26;94718.47;;;18.89;56.42
36192;BME280;22233;42.708;23.360;2022-11-20T06:52:52;94717.38;;;18.98;55.14
36192;BME280;22233;42.708;23.360;2022-11-20T06:55:17;94739.69;;;18.85;55.64
36192;BME280;22233;42.708;23.360;2022-11-20T06:57:42;94740.06;;;18.80;56.30
36192;BME280;22233;42.708;23.360;2022-11-20T07:00:08;94736.72;;;19.08;55.06
36192;BME280;22233;42.708;23.360;2022-11-20T07:02:34;94739.41;;;19.01;55.66
36192;BME280;22233;42.708;23.360;2022-11-20T07:04:59;94731.56;;;19.00;55.46
36192;BME280;22233;42.708;23.360;2022-11-20T07:07:25;94750.41;;;19.01;54.82
36192;BME280;22233;42.708;23.360;2022-11-20T07:09:50;94751.84;;;18.81;55.97
36192;BME280;22233;42.708;23.360;2022-11-20T07:12:16;94725.34;;;18.62;55.78
36192;BME280;22233;42.708;23.360;2022-11-20T07:14:41;94739.53;;;18.64;55.98
36192;BME280;22233;42.708;23.360;2022-11-20T07:17:07;94744.38;;;18.81;55.35
36192;BME280;22233;42.708;23.360;2022-11-20T07:19:32;94755.66;;;18.65;55.42
36192;BME280;22233;42.708;23.360;2022-11-20T07:21:57;94772.56;;;18.67;55.54
36192;BME280;22233;42.708;23.360;2022-11-20T07:24:23;94759.34;;;18.84;55.30
36192;BME280;22233;42.708;23.360;2022-11-20T07:26:48;94761.22;;;18.76;55.16
36192;BME280;22233;42.708;23.360;2022-11-20T07:29:16;94767.81;;;19.16;54.71
36192;BME280;22233;42.708;23.360;2022-11-20T07:31:42;94765.19;;;19.34;54.18
36192;BME280;22233;42.708;23.360;2022-11-20T07:34:08;94766.00;;;19.42;54.28
36192;BME280;22233;42.708;23.360;2022-11-20T07:36:37;94754.16;;;19.34;53.95
36192;BME280;22233;42.708;23.360;2022-11-20T07:39:02;94772.22;;;19.31;54.31
36192;BME280;22233;42.708;23.360;2022-11-20T07:41:28;94759.69;;;19.41;53.71
36192;BME280;22233;42.708;23.360;2022-11-20T07:43:54;94773.84;;;19.36;53.27
36192;BME280;22233;42.708;23.360;2022-11-20T07:46:19;94776.31;;;19.59;52.84
36192;BME280;22233;42.708;23.360;2022-11-20T07:48:44;94758.97;;;19.48;53.22
36192;BME280;22233;42.708;23.360;2022-11-20T07:51:10;94757.44;;;19.65;52.90
36192;BME280;22233;42.708;23.360;2022-11-20T07:53:35;94781.91;;;19.73;52.97
36192;BME280;22233;42.708;23.360;2022-11-20T07:56:02;94773.97;;;19.61;52.64
36192;BME280;22233;42.708;23.360;2022-11-20T07:58:29;94772.41;;;19.67;52.61
36192;BME280;22233;42.708;23.360;2022-11-20T08:00:55;94772.25;;;19.35;53.23
36192;BME280;22233;42.708;23.360;2022-11-20T08:03:21;94755.34;;;19.36;53.29
36192;BME280;22233;42.708;23.360;2022-11-20T08:05:46;94758.09;;;19.33;53.47
36192;BME280;22233;42.708;23.360;2022-11-20T08:08:11;94751.44;;;19.41;53.37
36192;BME280;22233;42.708;23.360;2022-11-20T08:10:37;94751.81;;;19.40;53.82
36192;BME280;22233;42.708;23.360;2022-11-20T08:13:02;94748.28;;;19.39;53.91
36192;BME280;22233;42.708;23.360;2022-11-20T08:15:50;94760.44;;;19.31;54.63
36192;BME280;22233;42.708;23.360;2022-11-20T08:18:19;94752.97;;;19.35;53.70
36192;BME280;22233;42.708;23.360;2022-11-20T08:20:44;94747.31;;;19.06;54.45
36192;BME280;22233;42.708;23.360;2022-11-20T08:23:10;94747.34;;;19.13;53.54
36192;BME280;22233;42.708;23.360;2022-11-20T08:25:37;94741.50;;;19.22;53.56
36192;BME280;22233;42.708;23.360;2022-11-20T08:28:05;94741.13;;;19.24;53.70
36192;BME280;22233;42.708;23.360;2022-11-20T08:30:31;94744.31;;;19.33;52.98
36192;BME280;22233;42.708;23.360;2022-11-20T08:33:05;94758.75;;;19.12;53.47
36192;BME280;22233;42.708;23.360;2022-11-20T08:35:35;94767.00;;;19.08;53.41
36192;BME280;22233;42.708;23.360;2022-11-20T08:38:02;94778.94;;;19.34;52.67
36192;BME280;22233;42.708;23.360;2022-11-20T08:40:27;94775.34;;;19.23;54.79
36192;BME280;22233;42.708;23.360;2022-11-20T08:42:53;94794.25;;;19.28;55.72
36192;BME280;22233;42.708;23.360;2022-11-20T08:45:19;94784.66;;;19.04;56.37
36192;BME280;22233;42.708;23.360;2022-11-20T08:47:45;94773.28;;;18.61;58.25
36192;BME280;22233;42.708;23.360;2022-11-20T08:50:12;94770.63;;;18.75;57.79
36192;BME280;22233;42.708;23.360;2022-11-20T08:52:38;94816.88;;;19.03;57.59
36192;BME280;22233;42.708;23.360;2022-11-20T08:55:05;94807.50;;;18.67;58.03
36192;BME280;22233;42.708;23.360;2022-11-20T08:57:32;94807.56;;;18.29;59.05
36192;BME280;22233;42.708;23.360;2022-11-20T08:59:58;94812.44;;;18.47;58.76
36192;BME280;22233;42.708;23.360;2022-11-20T09:02:24;94799.66;;;18.24;59.49
36192;BME280;22233;42.708;23.360;2022-11-20T09:04:49;94817.53;;;18.45;58.53
36192;BME280;22233;42.708;23.360;2022-11-20T09:07:15;94817.19;;;18.50;59.05
36192;BME280;22233;42.708;23.360;2022-11-20T09:09:40;94811.47;;;18.28;60.30
36192;BME280;22233;42.708;23.360;2022-11-20T09:12:05;94810.22;;;18.60;58.74
36192;BME280;22233;42.708;23.360;2022-11-20T09:14:31;94811.78;;;18.61;59.25
36192;BME280;22233;42.708;23.360;2022-11-20T09:16:57;94814.75;;;18.82;58.98
36192;BME280;22233;42.708;23.360;2022-11-20T09:19:24;94815.81;;;18.70;57.78
36192;BME280;22233;42.708;23.360;2022-11-20T09:21:50;94813.38;;;18.62;58.80
36192;BME280;22233;42.708;23.360;2022-11-20T09:24:15;94826.16;;;18.84;58.69
36192;BME280;22233;42.708;23.360;2022-11-20T09:26:41;94821.03;;;18.42;60.88
36192;BME280;22233;42.708;23.360;2022-11-20T09:29:06;94830.66;;;18.62;62.35
36192;BME280;22233;42.708;23.360;2022-11-20T09:31:32;94825.59;;;18.27;64.73
36192;BME280;22233;42.708;23.360;2022-11-20T09:33:57;94808.31;;;18.26;64.17
36192;BME280;22233;42.708;23.360;2022-11-20T09:36:23;94820.31;;;18.11;65.18
36192;BME280;22233;42.708;23.360;2022-11-20T09:38:48;94815.19;;;18.47;64.59
36192;BME280;22233;42.708;23.360;2022-11-20T09:50:02;94797.69;;;18.66;62.38
36192;BME280;22233;42.708;23.360;2022-11-20T09:55:22;94775.75;;;17.91;65.33
36192;BME280;22233;42.708;23.360;2022-11-20T09:57:50;94787.78;;;18.13;64.70
36192;BME280;22233;42.708;23.360;2022-11-20T10:00:17;94773.16;;;18.05;64.56
36192;BME280;22233;42.708;23.360;2022-11-20T10:05:21;94780.94;;;18.00;66.02
36192;BME280;22233;42.708;23.360;2022-11-20T10:18:08;94762.25;;;17.82;68.27
36192;BME280;22233;42.708;23.360;2022-11-20T10:20:43;94756.09;;;17.89;67.04
36192;BME280;22233;42.708;23.360;2022-11-20T10:31:34;94726.53;;;16.88;69.70
36192;BME280;22233;42.708;23.360;2022-11-20T10:34:06;94746.25;;;16.70;70.15
36192;BME280;22233;42.708;23.360;2022-11-20T10:36:43;94739.91;;;16.66;70.01
36192;BME280;22233;42.708;23.360;2022-11-20T10:39:25;94758.28;;;17.15;68.47
36192;BME280;22233;42.708;23.360;2022-11-20T10:41:54;94749.63;;;17.13;69.59
36192;BME280;22233;42.708;23.360;2022-11-20T10:44:22;94750.91;;;16.70;70.53
36192;BME280;22233;42.708;23.360;2022-11-20T10:47:15;94747.53;;;16.76;70.87
36192;BME280;22233;42.708;23.360;2022-11-20T10:49:42;94760.84;;;17.01;70.57
36192;BME280;22233;42.708;23.360;2022-11-20T10:55:25;94760.00;;;17.57;70.12
36192;BME280;22233;42.708;23.360;2022-11-20T10:57:56;94743.09;;;17.86;69.08
36192;BME280;22233;42.708;23.360;2022-11-20T11:00:23;94761.75;;;18.07;68.52
36192;BME280;22233;42.708;23.360;2022-11-20T11:02:51;94765.59;;;17.95;68.86
36192;BME280;22233;42.708;23.360;2022-11-20T11:08:03;94773.44;;;17.96;68.15
36192;BME280;22233;42.708;23.360;2022-11-20T11:10:35;94817.75;;;17.91;69.04
36192;BME280;22233;42.708;23.360;2022-11-20T11:13:02;94812.38;;;17.72;67.53
36192;BME280;22233;42.708;23.360;2022-11-20T11:15:30;94827.78;;;16.50;66.59
36192;BME280;22233;42.708;23.360;2022-11-20T11:17:56;94816.81;;;15.69;67.74
36192;BME280;22233;42.708;23.360;2022-11-20T11:20:24;94833.53;;;15.64;67.68
36192;BME280;22233;42.708;23.360;2022-11-20T11:22:52;94831.25;;;15.66;69.13
36192;BME280;22233;42.708;23.360;2022-11-20T11:25:33;94812.56;;;15.52;69.97
36192;BME280;22233;42.708;23.360;2022-11-20T11:28:20;94807.19;;;15.55;69.98
36192;BME280;22233;42.708;23.360;2022-11-20T11:30:46;94806.84;;;15.41;67.59
36192;BME280;22233;42.708;23.360;2022-11-20T11:33:25;94796.28;;;15.40;68.69
36192;BME280;22233;42.708;23.360;2022-11-20T11:36:21;94812.00;;;15.27;68.49
36192;BME280;22233;42.708;23.360;2022-11-20T11:38:44;94794.22;;;14.82;69.41
36192;BME280;22233;42.708;23.360;2022-11-20T11:41:26;94795.66;;;14.95;69.47
36192;BME280;22233;42.708;23.360;2022-11-20T11:43:55;94789.97;;;14.84;70.90
36192;BME280;22233;42.708;23.360;2022-11-20T11:46:41;94796.50;;;14.48;71.66
36192;BME280;22233;42.708;23.360;2022-11-20T11:52:08;94818.47;;;14.83;71.12
36192;BME280;22233;42.708;23.360;2022-11-20T11:54:45;94814.31;;;15.25;68.71
36192;BME280;22233;42.708;23.360;2022-11-20T12:00:09;94810.19;;;15.50;70.60
36192;BME280;22233;42.708;23.360;2022-11-20T12:15:46;94808.84;;;15.25;67.37
36192;BME280;22233;42.708;23.360;2022-11-20T12:18:17;94770.34;;;15.33;66.50
36192;BME280;22233;42.708;23.360;2022-11-20T12:21:04;94801.03;;;15.43;68.05
36192;BME280;22233;42.708;23.360;2022-11-20T12:27:01;94808.94;;;15.67;67.57
36192;BME280;22233;42.708;23.360;2022-11-20T12:37:33;94822.09;;;15.97;70.21
36192;BME280;22233;42.708;23.360;2022-11-20T12:45:54;94748.53;;;15.17;73.46
36192;BME280;22233;42.708;23.360;2022-11-20T12:52:13;94736.50;;;15.42;72.03
36192;BME280;22233;42.708;23.360;2022-11-20T12:59:33;94743.03;;;15.17;72.45
36192;BME280;22233;42.708;23.360;2022-11-20T13:05:02;94756.72;;;15.17;74.16
36192;BME280;22233;42.708;23.360;2022-11-20T13:07:31;94761.41;;;15.36;73.14
36192;BME280;22233;42.708;23.360;2022-11-20T13:09:59;94757.03;;;15.32;73.23
36192;BME280;22233;42.708;23.360;2022-11-20T13:12:33;94755.81;;;15.29;72.84
36192;BME280;22233;42.708;23.360;2022-11-20T13:17:59;94743.97;;;15.06;73.90
36192;BME280;22233;42.708;23.360;2022-11-20T13:20:25;94725.38;;;14.95;73.88
36192;BME280;22233;42.708;23.360;2022-11-20T13:22:53;94713.31;;;14.81;74.03
36192;BME280;22233;42.708;23.360;2022-11-20T13:27:52;94725.09;;;14.02;76.67
36192;BME280;22233;42.708;23.360;2022-11-20T13:30:20;94730.38;;;13.78;78.42
36192;BME280;22233;42.708;23.360;2022-11-20T13:32:56;94712.31;;;14.06;77.92
36192;BME280;22233;42.708;23.360;2022-11-20T13:35:33;94728.69;;;14.85;90.51
36192;BME280;22233;42.708;23.360;2022-11-20T13:38:19;94754.88;;;15.80;76.47
36192;BME280;22233;42.708;23.360;2022-11-20T13:40:59;94747.44;;;15.42;73.95
36192;BME280;22233;42.708;23.360;2022-11-20T13:43:47;94731.97;;;15.30;73.98
36192;BME280;22233;42.708;23.360;2022-11-20T13:46:12;94770.13;;;15.42;73.93
36192;BME280;22233;42.708;23.360;2022-11-20T13:48:40;94746.13;;;15.16;74.83
36192;BME280;22233;42.708;23.360;2022-11-20T13:51:22;94742.34;;;15.40;73.99
36192;BME280;22233;42.708;23.360;2022-11-20T13:59:58;94718.72;;;14.77;74.94
36192;BME280;22233;42.708;23.360;2022-11-20T14:02:27;94744.25;;;15.20;74.01
36192;BME280;22233;42.708;23.360;2022-11-20T14:04:58;94760.53;;;14.77;74.69
36192;BME280;22233;42.708;23.360;2022-11-20T14:07:31;94767.63;;;14.98;73.73
36192;BME280;22233;42.708;23.360;2022-11-20T14:09:57;94756.03;;;15.05;74.24
36192;BME280;22233;42.708;23.360;2022-11-20T14:12:29;94749.09;;;15.46;77.54
36192;BME280;22233;42.708;23.360;2022-11-20T14:14:55;94765.31;;;15.35;74.20
36192;BME280;22233;42.708;23.360;2022-11-20T14:17:23;94745.13;;;15.24;73.69
36192;BME280;22233;42.708;23.360;2022-11-20T14:19:51;94741.44;;;15.16;73.37
36192;BME280;22233;42.708;23.360;2022-11-20T14:24:59;94726.47;;;15.10;73.73
36192;BME280;22233;42.708;23.360;2022-11-20T14:27:25;94733.66;;;15.18;73.02
36192;BME280;22233;42.708;23.360;2022-11-20T14:29:51;94728.50;;;15.33;73.47
36192;BME280;22233;42.708;23.360;2022-11-20T14:32:22;94742.91;;;15.49;73.13
36192;BME280;22233;42.708;23.360;2022-11-20T14:34:51;94748.59;;;15.60;73.04
36192;BME280;22233;42.708;23.360;2022-11-20T14:37:22;94735.13;;;15.51;72.32
36192;BME280;22233;42.708;23.360;2022-11-20T14:39:51;94759.56;;;15.60;72.83